createdAt,value
2023-05-16T00:00:40.526Z,1.20
2023-05-16T00:03:07.586Z,1.17
2023-05-16T00:05:34.610Z,1.08
2023-05-16T00:08:01.427Z,1.63
2023-05-16T00:10:28.522Z,1.25
2023-05-16T00:12:56.392Z,0.90
2023-05-16T00:15:25.076Z,1.02
2023-05-16T00:17:52.172Z,1.20
2023-05-16T00:20:23.330Z,1.30
2023-05-16T00:22:50.995Z,1.95
2023-05-16T00:25:18.132Z,2.38
2023-05-16T00:27:45.029Z,0.77
2023-05-16T00:30:12.233Z,1.42
2023-05-16T00:32:39.364Z,1.23
2023-05-16T00:35:07.181Z,2.33
2023-05-16T00:37:34.040Z,0.57
2023-05-16T00:40:00.862Z,0.77
2023-05-16T00:42:27.700Z,1.48
2023-05-16T00:44:54.447Z,1.10
2023-05-16T00:47:21.346Z,1.40
2023-05-16T00:49:48.320Z,2.03
2023-05-16T00:52:16.105Z,1.35
2023-05-16T00:54:43.262Z,1.50
2023-05-16T00:57:10.452Z,1.33
2023-05-16T00:59:37.349Z,0.90
2023-05-16T01:02:04.326Z,1.38
2023-05-16T01:04:32.150Z,1.52
2023-05-16T01:06:59.289Z,0.93
2023-05-16T01:09:26.230Z,0.88
2023-05-16T01:11:56.041Z,1.85
2023-05-16T01:14:38.001Z,2.60
2023-05-16T01:17:18.048Z,1.35
2023-05-16T01:19:59.736Z,1.58
2023-05-16T01:22:48.624Z,1.13
2023-05-16T01:25:36.776Z,1.33
2023-05-16T01:28:05.098Z,1.55
2023-05-16T01:30:38.919Z,1.15
2023-05-16T01:33:06.245Z,0.65
2023-05-16T01:35:33.799Z,1.13
2023-05-16T01:38:06.347Z,1.20
2023-05-16T01:40:45.975Z,1.48
2023-05-16T01:43:17.684Z,1.10
2023-05-16T01:45:54.059Z,0.77
2023-05-16T01:48:27.223Z,1.67
2023-05-16T01:50:58.098Z,1.58
2023-05-16T01:53:33.841Z,0.88
2023-05-16T01:56:02.297Z,0.93
2023-05-16T01:58:33.129Z,0.85
2023-05-16T02:01:05.186Z,1.13
2023-05-16T02:03:32.270Z,0.73
2023-05-16T02:05:59.578Z,1.92
2023-05-16T02:08:28.066Z,1.15
2023-05-16T02:10:54.901Z,0.55
2023-05-16T02:13:21.679Z,1.08
2023-05-16T02:15:48.476Z,0.85
2023-05-16T02:18:15.406Z,1.33
2023-05-16T02:20:42.211Z,1.00
2023-05-16T02:23:09.006Z,1.25
2023-05-16T02:25:35.837Z,1.83
2023-05-16T02:28:02.656Z,0.95
2023-05-16T02:30:29.681Z,1.00
2023-05-16T02:32:56.521Z,0.75
2023-05-16T02:35:23.469Z,1.90
2023-05-16T02:37:51.033Z,0.73
2023-05-16T02:40:17.870Z,1.50
2023-05-16T02:42:44.671Z,0.95
2023-05-16T02:45:12.418Z,0.98
2023-05-16T02:47:39.394Z,1.02
2023-05-16T02:50:06.725Z,1.15
2023-05-16T02:52:33.533Z,0.82
2023-05-16T02:55:20.288Z,1.42
2023-05-16T02:57:47.439Z,1.40
2023-05-16T03:00:16.630Z,1.73
2023-05-16T03:02:45.433Z,1.02
2023-05-16T03:05:12.430Z,0.50
2023-05-16T03:07:39.696Z,0.68
2023-05-16T03:10:07.283Z,0.77
2023-05-16T03:12:34.110Z,0.60
2023-05-16T03:15:01.828Z,1.25
2023-05-16T03:17:28.992Z,0.85
2023-05-16T03:19:55.935Z,0.90
2023-05-16T03:22:22.739Z,0.82
2023-05-16T03:24:49.607Z,1.00
2023-05-16T03:27:16.451Z,1.50
2023-05-16T03:29:43.268Z,0.40
2023-05-16T03:32:11.804Z,1.23
2023-05-16T03:34:38.733Z,1.33
2023-05-16T03:37:05.908Z,0.80
2023-05-16T03:39:32.734Z,1.17
2023-05-16T03:41:59.581Z,0.73
2023-05-16T03:44:26.401Z,1.08
2023-05-16T03:46:54.270Z,0.95
2023-05-16T03:49:23.829Z,0.98
2023-05-16T03:51:50.745Z,1.05
2023-05-16T03:54:17.710Z,0.82
2023-05-16T03:56:44.532Z,0.68
2023-05-16T03:59:11.295Z,0.65
2023-05-16T04:01:38.123Z,1.50
2023-05-16T04:04:05.093Z,0.77
2023-05-16T04:06:32.556Z,1.40
2023-05-16T04:08:59.593Z,1.30
2023-05-16T04:11:26.665Z,0.85
2023-05-16T04:13:54.247Z,1.25
2023-05-16T04:16:21.186Z,0.77
2023-05-16T04:18:48.074Z,1.40
2023-05-16T04:21:15.378Z,0.85
2023-05-16T05:27:54.826Z,1.77
2023-05-16T05:30:21.719Z,0.90
2023-05-16T05:32:48.577Z,0.93
2023-05-16T05:35:15.782Z,0.98
2023-05-16T05:37:42.663Z,1.00
2023-05-16T05:40:09.810Z,0.90
2023-05-16T05:42:36.610Z,1.25
2023-05-16T05:45:03.798Z,1.00
2023-05-16T05:47:31.073Z,1.17
2023-05-16T05:49:58.084Z,1.77
2023-05-16T05:52:24.991Z,0.98
2023-05-16T05:54:51.835Z,0.63
2023-05-16T05:57:18.691Z,1.52
2023-05-16T05:59:45.505Z,0.60
2023-05-16T06:02:12.457Z,0.50
2023-05-16T06:04:39.323Z,1.30
2023-05-16T06:07:06.199Z,0.73
2023-05-16T06:09:33.038Z,0.80
2023-05-16T06:12:00.182Z,1.65
2023-05-16T06:14:27.017Z,1.02
2023-05-16T06:16:54.142Z,0.93
2023-05-16T06:19:21.047Z,0.88
2023-05-16T06:21:47.929Z,1.08
2023-05-16T06:24:15.065Z,0.80
2023-05-16T06:26:41.979Z,0.65
2023-05-16T06:29:08.887Z,0.40
2023-05-16T06:31:35.853Z,0.55
2023-05-16T06:34:02.930Z,0.95
2023-05-16T06:36:29.759Z,1.02
2023-05-16T06:38:56.637Z,0.40
2023-05-16T06:41:23.487Z,0.60
2023-05-16T06:43:50.499Z,0.80
2023-05-16T06:46:17.432Z,1.00
2023-05-16T06:48:44.402Z,0.75
2023-05-16T06:51:11.434Z,0.55
2023-05-16T06:53:38.312Z,1.25
2023-05-16T06:56:05.576Z,1.00
2023-05-16T06:58:32.504Z,0.63
2023-05-16T07:00:59.359Z,0.98
2023-05-16T07:03:26.428Z,0.70
2023-05-16T07:05:53.739Z,0.80
2023-05-16T07:08:20.773Z,0.73
2023-05-16T07:10:47.690Z,0.75
2023-05-16T07:13:14.544Z,0.70
2023-05-16T07:15:41.378Z,0.85
2023-05-16T07:18:10.560Z,0.43
2023-05-16T07:20:37.467Z,0.85
2023-05-16T07:23:04.452Z,0.60
2023-05-16T07:25:32.392Z,0.80
2023-05-16T07:27:59.873Z,0.88
2023-05-16T07:30:26.895Z,0.60
2023-05-16T07:32:53.935Z,0.47
2023-05-16T07:35:20.810Z,0.77
2023-05-16T07:37:50.169Z,1.20
2023-05-16T07:40:18.521Z,1.10
2023-05-16T07:42:45.450Z,0.80
2023-05-16T07:45:12.365Z,0.50
2023-05-16T07:47:39.286Z,0.40
2023-05-16T07:50:06.793Z,0.90
2023-05-16T07:52:33.640Z,0.68
2023-05-16T07:55:00.540Z,0.40
2023-05-16T07:57:27.539Z,0.22
2023-05-16T07:59:54.899Z,1.05
2023-05-16T08:02:24.822Z,0.65
2023-05-16T08:04:51.890Z,0.30
2023-05-16T08:07:18.878Z,0.40
2023-05-16T08:09:45.874Z,0.68
2023-05-16T08:12:12.827Z,1.48
2023-05-16T08:14:39.735Z,0.95
2023-05-16T08:17:06.736Z,1.05
2023-05-16T08:19:33.874Z,0.47
2023-05-16T08:22:00.974Z,0.95
2023-05-16T08:24:27.883Z,0.52
2023-05-16T08:26:54.805Z,0.50
2023-05-16T08:29:22.149Z,0.95
2023-05-16T08:31:49.084Z,0.50
2023-05-16T08:34:16.141Z,0.63
2023-05-16T08:36:45.894Z,0.47
2023-05-16T08:39:13.129Z,0.30
2023-05-16T08:41:40.427Z,0.47
2023-05-16T08:44:07.411Z,0.90
2023-05-16T08:46:37.145Z,1.23
2023-05-16T08:49:08.864Z,0.70
2023-05-16T08:51:37.320Z,0.32
2023-05-16T08:54:07.780Z,0.60
2023-05-16T08:56:35.656Z,1.15
2023-05-16T08:59:03.175Z,0.30
2023-05-16T09:01:32.199Z,0.65
2023-05-16T09:04:00.756Z,0.60
2023-05-16T09:06:28.085Z,0.60
2023-05-16T09:08:55.324Z,0.82
2023-05-16T09:11:22.346Z,0.57
2023-05-16T09:13:49.901Z,0.68
2023-05-16T09:16:20.374Z,0.90
2023-05-16T09:18:59.270Z,0.68
2023-05-16T09:21:30.047Z,0.95
2023-05-16T09:23:57.157Z,0.98
2023-05-16T09:26:24.182Z,0.65
2023-05-16T09:28:56.021Z,0.90
2023-05-16T09:31:26.703Z,0.73
2023-05-16T09:33:56.520Z,0.60
2023-05-16T09:36:23.561Z,0.40
2023-05-16T09:38:52.348Z,0.50
2023-05-16T09:41:21.601Z,0.70
2023-05-16T09:43:48.530Z,0.52
2023-05-16T09:46:15.978Z,0.75
2023-05-16T09:48:47.293Z,0.75
2023-05-16T09:51:15.116Z,0.60
2023-05-16T09:53:42.242Z,0.47
2023-05-16T09:56:13.789Z,1.17
2023-05-16T09:58:44.139Z,0.47
2023-05-16T10:01:11.869Z,0.73
2023-05-16T10:03:40.937Z,1.60
2023-05-16T10:06:09.536Z,0.55
2023-05-16T10:08:37.298Z,0.43
2023-05-16T10:11:07.453Z,0.77
2023-05-16T10:13:36.550Z,0.52
2023-05-16T10:16:10.042Z,0.30
2023-05-16T10:18:39.781Z,0.55
2023-05-16T10:21:11.588Z,0.35
2023-05-16T10:23:42.686Z,0.40
2023-05-16T10:26:11.387Z,0.93
2023-05-16T10:28:39.682Z,0.43
2023-05-16T10:31:08.329Z,0.90
2023-05-16T10:33:36.601Z,0.90
2023-05-16T10:36:05.391Z,0.38
2023-05-16T10:38:33.546Z,0.85
2023-05-16T10:41:01.293Z,0.85
2023-05-16T10:43:31.012Z,0.47
2023-05-16T10:46:04.585Z,0.60
2023-05-16T10:48:34.989Z,0.60
2023-05-16T10:51:03.310Z,0.60
2023-05-16T10:53:30.201Z,0.73
2023-05-16T10:55:59.874Z,0.52
2023-05-16T10:58:39.046Z,0.98
2023-05-16T11:01:29.242Z,1.15
2023-05-16T11:04:01.529Z,0.90
2023-05-16T11:06:31.251Z,0.73
2023-05-16T11:09:07.279Z,0.80
2023-05-16T11:11:48.687Z,0.80
2023-05-16T11:14:32.517Z,0.80
2023-05-16T11:17:16.069Z,0.70
2023-05-16T11:19:59.640Z,0.60
2023-05-16T11:22:29.525Z,0.88
2023-05-16T11:25:01.938Z,0.52
2023-05-16T11:27:33.426Z,0.50
2023-05-16T11:30:06.600Z,0.30
2023-05-16T11:32:38.140Z,0.63
2023-05-16T11:35:07.955Z,0.65
2023-05-16T11:37:39.686Z,0.50
2023-05-16T11:40:09.505Z,0.73
2023-05-16T11:42:41.848Z,0.63
2023-05-16T11:45:15.426Z,0.85
2023-05-16T11:47:45.763Z,1.15
2023-05-16T11:50:14.436Z,0.68
2023-05-16T11:52:45.590Z,0.88
2023-05-16T11:55:15.589Z,1.25
2023-05-16T11:57:44.571Z,0.70
2023-05-16T12:00:19.465Z,0.52
2023-05-16T12:02:47.894Z,0.60
2023-05-16T12:05:16.782Z,0.82
2023-05-16T12:07:47.401Z,0.55
2023-05-16T12:10:16.023Z,0.43
2023-05-16T12:12:46.390Z,0.70
2023-05-16T12:15:13.877Z,0.45
2023-05-16T12:17:41.888Z,0.60
2023-05-16T12:20:14.622Z,0.80
2023-05-16T12:22:43.322Z,0.47
2023-05-16T12:25:27.742Z,0.80
2023-05-16T12:27:57.913Z,0.65
2023-05-16T12:30:26.720Z,0.90
2023-05-16T12:32:57.979Z,0.75
2023-05-16T12:35:30.292Z,0.88
2023-05-16T12:37:57.361Z,1.48
2023-05-16T12:40:28.256Z,1.52
2023-05-16T12:42:55.802Z,1.20
2023-05-16T12:45:23.465Z,0.85
2023-05-16T12:47:53.240Z,0.82
2023-05-16T12:50:20.655Z,0.77
2023-05-16T12:53:00.509Z,1.27
2023-05-16T12:55:27.482Z,1.20
2023-05-16T12:57:56.532Z,1.17
2023-05-16T13:00:23.758Z,0.77
2023-05-16T13:02:50.790Z,0.80
2023-05-16T13:05:18.112Z,1.00
2023-05-16T13:07:45.189Z,0.80
2023-05-16T13:10:12.679Z,0.70
2023-05-16T13:12:40.833Z,0.80
2023-05-16T13:15:09.604Z,1.20
2023-05-16T13:17:37.750Z,0.90
2023-05-16T13:20:09.995Z,0.90
2023-05-16T13:22:37.307Z,1.10
2023-05-16T13:25:04.799Z,1.15
2023-05-16T13:27:32.330Z,1.55
2023-05-16T13:29:59.579Z,0.80
2023-05-16T13:32:26.785Z,1.30
2023-05-16T13:34:53.860Z,1.40
2023-05-16T13:37:21.371Z,1.27
2023-05-16T13:39:48.239Z,1.88
2023-05-16T13:42:15.121Z,1.10
2023-05-16T13:44:42.482Z,1.27
2023-05-16T13:47:09.627Z,1.15
2023-05-16T13:49:37.518Z,2.22
2023-05-16T13:52:04.810Z,1.38
2023-05-16T13:54:31.684Z,0.80
2023-05-16T13:56:58.606Z,1.42
2023-05-16T13:59:41.066Z,1.50
2023-05-16T14:02:12.708Z,1.13
2023-05-16T14:04:39.581Z,1.63
2023-05-16T14:07:06.536Z,1.10
2023-05-16T14:09:35.160Z,1.50
2023-05-16T14:12:05.269Z,1.50
2023-05-16T14:14:32.157Z,1.48
2023-05-16T14:16:59.676Z,1.27
2023-05-16T14:19:26.759Z,1.67
2023-05-16T14:21:54.078Z,2.00
2023-05-16T14:24:21.133Z,1.42
2023-05-16T14:26:48.017Z,1.40
2023-05-16T14:29:14.905Z,1.45
2023-05-16T14:31:42.092Z,1.63
2023-05-16T14:34:09.092Z,1.05
2023-05-16T14:36:36.048Z,1.50
2023-05-16T14:39:02.988Z,1.40
2023-05-16T14:41:29.974Z,1.85
2023-05-16T14:43:56.833Z,1.08
2023-05-16T14:46:23.862Z,1.00
2023-05-16T14:48:51.141Z,1.08
2023-05-16T14:51:18.074Z,1.23
2023-05-16T14:53:46.948Z,1.45
2023-05-16T14:56:14.665Z,1.38
2023-05-16T14:58:41.573Z,1.92
2023-05-16T15:01:08.475Z,1.60
2023-05-16T15:03:53.620Z,1.20
2023-05-16T15:06:21.988Z,1.30
2023-05-16T15:08:48.877Z,1.13
2023-05-16T15:11:15.867Z,1.30
2023-05-16T15:13:42.816Z,1.52
2023-05-16T15:16:12.269Z,1.10
2023-05-16T15:18:41.017Z,1.13
2023-05-16T15:21:09.061Z,1.00
2023-05-16T15:23:36.639Z,0.70
2023-05-16T15:26:04.493Z,0.70
2023-05-16T15:28:31.357Z,1.38
2023-05-16T15:30:58.324Z,1.20
2023-05-16T15:33:25.290Z,0.90
2023-05-16T15:35:52.173Z,1.17
2023-05-16T15:38:18.991Z,0.88
2023-05-16T15:40:45.982Z,1.40
2023-05-16T15:43:13.090Z,1.15
2023-05-16T15:45:40.565Z,0.70
2023-05-16T15:48:07.820Z,1.27
2023-05-16T15:50:35.061Z,0.90
2023-05-16T15:53:04.106Z,1.15
2023-05-16T15:55:31.679Z,1.10
2023-05-16T15:57:59.663Z,1.30
2023-05-16T16:00:26.782Z,1.30
2023-05-16T16:02:53.833Z,1.02
2023-05-16T16:05:20.928Z,1.10
2023-05-16T16:07:47.855Z,1.42
2023-05-16T16:10:14.833Z,0.90
2023-05-16T16:12:42.006Z,0.90
2023-05-16T16:15:13.059Z,1.40
2023-05-16T16:17:40.087Z,0.85
2023-05-16T16:20:07.437Z,1.00
2023-05-16T16:22:34.351Z,0.70
2023-05-16T16:25:01.229Z,1.42
2023-05-16T16:27:28.102Z,0.82
2023-05-16T16:29:55.042Z,0.80
2023-05-16T16:32:21.947Z,0.82
2023-05-16T16:34:49.434Z,0.88
2023-05-16T16:37:16.595Z,0.90
2023-05-16T16:39:43.799Z,0.93
2023-05-16T16:42:13.040Z,1.10
2023-05-16T16:44:39.885Z,0.65
2023-05-16T16:47:07.034Z,0.52
2023-05-16T16:49:33.990Z,0.88
2023-05-16T16:52:00.849Z,1.20
2023-05-16T16:54:28.202Z,0.52
2023-05-16T16:56:56.434Z,0.90
2023-05-16T16:59:23.620Z,0.80
2023-05-16T17:01:50.952Z,1.13
2023-05-16T17:04:17.874Z,0.73
2023-05-16T17:06:48.407Z,0.98
2023-05-16T17:09:17.948Z,1.05
2023-05-16T17:11:46.764Z,0.90
2023-05-16T17:14:14.798Z,0.70
2023-05-16T17:16:42.169Z,0.82
2023-05-16T17:19:10.231Z,1.00
2023-05-16T17:21:40.401Z,0.70
2023-05-16T17:24:08.039Z,0.60
2023-05-16T17:26:35.542Z,0.57
2023-05-16T17:29:04.768Z,0.68
2023-05-16T17:31:31.704Z,0.80
2023-05-16T17:33:58.785Z,0.55
2023-05-16T17:36:25.714Z,1.02
2023-05-16T17:38:52.877Z,0.80
2023-05-16T17:41:20.583Z,0.57
2023-05-16T17:43:47.557Z,1.00
2023-05-16T17:46:14.555Z,1.05
2023-05-16T17:48:42.254Z,0.95
2023-05-16T17:51:12.318Z,1.42
2023-05-16T17:53:39.284Z,0.98
2023-05-16T17:56:06.364Z,0.90
2023-05-16T17:58:33.347Z,0.90
2023-05-16T18:01:00.482Z,1.10
2023-05-16T18:03:27.464Z,0.60
2023-05-16T18:05:54.727Z,0.57
2023-05-16T18:08:21.735Z,1.15
2023-05-16T18:10:52.280Z,0.57
2023-05-16T18:13:20.550Z,0.65
2023-05-16T18:15:47.747Z,0.95
2023-05-16T18:18:14.717Z,0.40
2023-05-16T18:20:42.085Z,0.35
2023-05-16T18:23:09.049Z,0.57
2023-05-16T18:25:38.292Z,0.70
2023-05-16T18:28:05.564Z,0.45
2023-05-16T18:30:32.557Z,0.95
2023-05-16T18:32:59.939Z,0.80
2023-05-16T18:35:28.653Z,1.42
2023-05-16T18:37:56.026Z,0.43
2023-05-16T18:40:23.126Z,0.55
2023-05-16T18:42:51.043Z,0.50
2023-05-16T18:45:17.915Z,0.57
2023-05-16T18:47:48.213Z,0.93
2023-05-16T18:50:15.771Z,0.98
2023-05-16T18:52:42.673Z,0.73
2023-05-16T18:55:12.150Z,0.50
2023-05-16T18:57:39.196Z,0.30
2023-05-16T19:00:07.544Z,0.40
2023-05-16T19:02:42.044Z,0.68
2023-05-16T19:05:10.759Z,0.65
2023-05-16T19:07:37.951Z,0.50
2023-05-16T19:10:16.188Z,1.00
2023-05-16T19:12:46.739Z,0.60
2023-05-16T19:15:15.746Z,0.77
2023-05-16T19:17:42.980Z,0.60
2023-05-16T19:20:10.931Z,0.47
2023-05-16T19:22:38.099Z,0.60
2023-05-16T19:25:06.988Z,0.60
2023-05-16T19:27:36.109Z,0.75
2023-05-16T19:30:03.120Z,0.47
2023-05-16T19:32:30.372Z,0.45
2023-05-16T19:34:57.553Z,0.80
2023-05-16T19:37:24.671Z,0.57
2023-05-16T19:39:51.562Z,0.85
2023-05-16T19:42:18.409Z,0.93
2023-05-16T19:44:45.436Z,0.90
2023-05-16T19:47:12.365Z,1.20
2023-05-16T19:49:39.237Z,1.08
2023-05-16T19:52:09.100Z,1.00
2023-05-16T19:54:36.116Z,1.35
2023-05-16T19:57:03.037Z,1.00
2023-05-16T19:59:32.093Z,0.93
2023-05-16T20:02:17.713Z,0.95
2023-05-16T20:04:45.937Z,1.40
2023-05-16T20:07:12.889Z,1.40
2023-05-16T20:09:39.783Z,1.77
2023-05-16T20:12:07.227Z,1.50
2023-05-16T20:14:34.193Z,1.50
2023-05-16T20:17:01.094Z,1.30
2023-05-16T20:19:30.483Z,1.50
2023-05-16T20:21:57.705Z,1.20
2023-05-16T20:24:24.573Z,1.33
2023-05-16T20:26:51.430Z,1.45
2023-05-16T20:29:18.409Z,1.17
2023-05-16T20:31:45.278Z,1.20
2023-05-16T20:34:12.269Z,1.30
2023-05-16T20:36:39.685Z,1.60
2023-05-16T20:39:08.921Z,1.30
2023-05-16T20:42:03.592Z,1.20
2023-05-16T20:44:30.573Z,1.55
2023-05-16T20:46:57.448Z,1.52
2023-05-16T20:49:26.357Z,1.40
2023-05-16T20:51:53.253Z,1.15
2023-05-16T20:54:20.174Z,2.03
2023-05-16T20:56:47.016Z,1.80
2023-05-16T20:59:13.899Z,1.73
2023-05-16T21:01:41.178Z,1.55
2023-05-16T21:04:17.647Z,1.40
2023-05-16T21:06:58.979Z,1.88
2023-05-16T21:09:25.873Z,1.40
2023-05-16T21:11:52.742Z,1.83
2023-05-16T21:14:20.535Z,2.10
2023-05-16T21:16:47.419Z,2.65
2023-05-16T21:19:14.419Z,1.73
2023-05-16T21:21:51.101Z,1.40
2023-05-16T21:24:18.018Z,1.77
2023-05-16T21:26:45.408Z,1.08
2023-05-16T21:29:12.221Z,1.45
2023-05-16T21:31:39.135Z,2.08
2023-05-16T21:34:06.213Z,1.23
2023-05-16T21:36:33.248Z,1.73
2023-05-16T21:39:00.073Z,1.70
2023-05-16T21:41:27.093Z,1.45
2023-05-16T21:43:54.078Z,1.73
2023-05-16T21:46:21.017Z,1.33
2023-05-16T21:48:48.077Z,1.15
2023-05-16T21:51:20.096Z,1.45
2023-05-16T21:53:54.911Z,1.33
2023-05-16T21:56:22.149Z,1.75
2023-05-16T21:58:48.979Z,1.67
2023-05-16T22:01:16.574Z,1.27
2023-05-16T22:03:43.616Z,1.90
2023-05-16T22:06:10.539Z,2.25
2023-05-16T22:08:37.405Z,1.63
2023-05-16T22:11:04.403Z,2.10
2023-05-16T22:13:31.419Z,1.40
2023-05-16T22:16:04.703Z,1.65
2023-05-16T22:18:33.211Z,1.67
2023-05-16T22:21:00.610Z,2.13
2023-05-16T22:23:27.695Z,1.75
2023-05-16T22:25:54.553Z,2.15
2023-05-16T22:28:21.378Z,1.90
2023-05-16T22:30:48.368Z,1.92
2023-05-16T22:33:15.418Z,1.67
2023-05-16T22:35:42.317Z,1.60
2023-05-16T22:38:09.148Z,2.65
2023-05-16T22:40:36.593Z,2.10
2023-05-16T22:43:03.511Z,2.58
2023-05-16T22:45:30.553Z,1.80
2023-05-16T22:47:57.471Z,2.05
2023-05-16T22:50:27.107Z,1.85
2023-05-16T22:53:03.174Z,2.45
2023-05-16T22:55:30.245Z,2.42
2023-05-16T22:57:59.805Z,1.73
2023-05-16T23:00:26.762Z,1.88
2023-05-16T23:02:54.934Z,2.45
2023-05-16T23:05:21.971Z,2.00
2023-05-16T23:07:48.970Z,2.00
2023-05-16T23:10:19.162Z,2.05
2023-05-16T23:12:46.002Z,1.30
2023-05-16T23:15:21.676Z,1.83
2023-05-16T23:17:48.699Z,2.70
2023-05-16T23:20:15.686Z,2.05
2023-05-16T23:22:42.632Z,2.47
2023-05-16T23:25:09.883Z,1.63
2023-05-16T23:27:36.718Z,2.72
2023-05-16T23:30:03.786Z,1.88
2023-05-16T23:32:31.032Z,2.17
2023-05-16T23:34:57.969Z,2.03
2023-05-16T23:37:24.879Z,2.72
2023-05-16T23:39:51.774Z,1.67
2023-05-16T23:42:18.648Z,1.88
2023-05-16T23:44:46.355Z,2.10
2023-05-16T23:47:13.313Z,2.63
2023-05-16T23:49:40.730Z,2.17
2023-05-16T23:52:13.609Z,2.60
2023-05-16T23:54:40.574Z,1.77
2023-05-16T23:57:14.613Z,2.05
2023-05-16T23:59:41.622Z,3.03
